Energy IVy — A8UO8 — position and weather

sailwx.info

Track history (hours):
 
Tides and Currents Weather Stations Pressure Air Temp Water Temp Dewpoint Dewpoint Depression Visibility Wind Speed Wind Dir Waves Ship Positions

Energy IVy

Last reported at 2014-Aug-18 15:14 UTC. Time now 2014-Aug-21 12:10 UTC.
Position N 31°38' E 031°45'.

Length 180 m; draft 10.9 m.

Type: Cargo ship. MMSI: 636091925.

Date/timePositionNaut miles runAvg speedWind from/ knotsBaromVisibWave heightAir tempDewpointWater temp
2014-Aug-18 15:14N 31°38' E 031°45'46 3.5
2014-Aug-18 02:18N 32°14' E 031°12'911.3
2014-Aug-18 01:30N 32°21' E 031°05'1111.4
2014-Aug-18 00:33N 32°29' E 030°57'6911.5
2014-Aug-17 18:30N 33°22' E 030°03'1612.6
2014-Aug-17 17:13N 33°34' E 029°50'812.4
2014-Aug-17 16:32N 33°40' E 029°44'1212.3
2014-Aug-17 15:33N 33°50' E 029°35'2411.7
2014-Aug-17 13:31N 34°07' E 029°15'1211.4
2014-Aug-17 12:27N 34°17' E 029°06'19011.7
2014-Aug-16 20:09N 36°40' E 026°32'711.6
2014-Aug-16 19:32N 36°45' E 026°26'1211.9
2014-Aug-16 18:30N 36°54' E 026°16'1111.9
2014-Aug-16 17:33N 37°04' E 026°08'1211.9
2014-Aug-16 16:32N 37°14' E 026°01'1211.9
2014-Aug-16 15:33N 37°24' E 025°53'1111.4
2014-Aug-16 14:34N 37°35' E 025°49'6011.5
2014-Aug-16 09:23N 38°35' E 025°46'184 9.7
2014-Aug-15 14:24N 40°52' E 028°25'910.7
2014-Aug-15 13:32N 40°54' E 028°37'1110.8
2014-Aug-15 12:32N 40°55' E 028°51'340 7.9
2014-Aug-13 17:34N 46°25' E 030°51'6 6.2
2014-Aug-13 16:33N 46°29' E 030°45'0 0.3
2014-Aug-13 15:33N 46°29' E 030°45'0 0.0
2014-Aug-13 14:27N 46°29' E 030°45'0 0.0
2014-Aug-13 13:33N 46°29' E 030°45'0 0.0
2014-Aug-13 12:33N 46°29' E 030°45'0 0.0
2014-Aug-13 05:09N 46°29' E 030°45'0 0.0
2014-Aug-13 04:33N 46°29' E 030°45'0 0.0
2014-Aug-13 03:33N 46°29' E 030°45'0 0.0
2014-Aug-13 02:33N 46°29' E 030°45'0 0.0
2014-Aug-13 01:33N 46°29' E 030°45'0 0.0
2014-Aug-13 00:33N 46°29' E 030°45'0 0.0
2014-Aug-12 23:33N 46°29' E 030°45'0 0.0
2014-Aug-12 22:33N 46°29' E 030°45'0 0.0
2014-Aug-12 21:33N 46°29' E 030°45'0 0.0
2014-Aug-12 20:27N 46°29' E 030°45'0 0.0
2014-Aug-12 19:27N 46°29' E 030°45'0 0.0
2014-Aug-12 18:30N 46°29' E 030°45'0 0.0
2014-Aug-12 17:33N 46°29' E 030°45'  
2014-Aug-10 01:05N 46°30' E 030°45'  
Track history (hours):
 
Tides and Currents Weather Stations Pressure Air Temp Water Temp Dewpoint Dewpoint Depression Visibility Wind Speed Wind Dir Waves Ship Positions

Energy IVy

Last reported at 2014-Aug-18 15:14 UTC. Time now 2014-Aug-21 12:10 UTC.
Position N 31°38' E 031°45'.

Length 180 m; draft 10.9 m.

Type: Cargo ship. MMSI: 636091925.

Date/timePositionNaut miles runAvg speedWind from/ knotsBaromVisibWave heightAir tempDewpointWater temp
2014-Aug-18 15:14N 31°38' E 031°45'46 3.5
2014-Aug-18 02:18N 32°14' E 031°12'911.3
2014-Aug-18 01:30N 32°21' E 031°05'1111.4
2014-Aug-18 00:33N 32°29' E 030°57'6911.5
2014-Aug-17 18:30N 33°22' E 030°03'1612.6
2014-Aug-17 17:13N 33°34' E 029°50'812.4
2014-Aug-17 16:32N 33°40' E 029°44'1212.3
2014-Aug-17 15:33N 33°50' E 029°35'2411.7
2014-Aug-17 13:31N 34°07' E 029°15'1211.4
2014-Aug-17 12:27N 34°17' E 029°06'19011.7
2014-Aug-16 20:09N 36°40' E 026°32'711.6
2014-Aug-16 19:32N 36°45' E 026°26'1211.9
2014-Aug-16 18:30N 36°54' E 026°16'1111.9
2014-Aug-16 17:33N 37°04' E 026°08'1211.9
2014-Aug-16 16:32N 37°14' E 026°01'1211.9
2014-Aug-16 15:33N 37°24' E 025°53'1111.4
2014-Aug-16 14:34N 37°35' E 025°49'6011.5
2014-Aug-16 09:23N 38°35' E 025°46'184 9.7
2014-Aug-15 14:24N 40°52' E 028°25'910.7
2014-Aug-15 13:32N 40°54' E 028°37'1110.8
2014-Aug-15 12:32N 40°55' E 028°51'340 7.9
2014-Aug-13 17:34N 46°25' E 030°51'6 6.2
2014-Aug-13 16:33N 46°29' E 030°45'0 0.3
2014-Aug-13 15:33N 46°29' E 030°45'0 0.0
2014-Aug-13 14:27N 46°29' E 030°45'0 0.0
2014-Aug-13 13:33N 46°29' E 030°45'0 0.0
2014-Aug-13 12:33N 46°29' E 030°45'0 0.0
2014-Aug-13 05:09N 46°29' E 030°45'0 0.0
2014-Aug-13 04:33N 46°29' E 030°45'0 0.0
2014-Aug-13 03:33N 46°29' E 030°45'0 0.0
2014-Aug-13 02:33N 46°29' E 030°45'0 0.0
2014-Aug-13 01:33N 46°29' E 030°45'0 0.0
2014-Aug-13 00:33N 46°29' E 030°45'0 0.0
2014-Aug-12 23:33N 46°29' E 030°45'0 0.0
2014-Aug-12 22:33N 46°29' E 030°45'0 0.0
2014-Aug-12 21:33N 46°29' E 030°45'0 0.0
2014-Aug-12 20:27N 46°29' E 030°45'0 0.0
2014-Aug-12 19:27N 46°29' E 030°45'0 0.0
2014-Aug-12 18:30N 46°29' E 030°45'0 0.0
2014-Aug-12 17:33N 46°29' E 030°45'  
2014-Aug-10 01:05N 46°30' E 030°45'  

Dump ship's entire track history